sensor_id;sensor_type;location;lat;lon;timestamp;temperature;humidity
11009;DHT22;5557;51.670;7.788;2023-01-24T00:01:06;2.70;55.70
11009;DHT22;5557;51.670;7.788;2023-01-24T00:03:33;2.70;55.00
11009;DHT22;5557;51.670;7.788;2023-01-24T00:06:00;2.70;57.00
11009;DHT22;5557;51.670;7.788;2023-01-24T00:08:27;2.70;55.70
11009;DHT22;5557;51.670;7.788;2023-01-24T00:11:13;2.70;55.70
11009;DHT22;5557;51.670;7.788;2023-01-24T00:13:40;2.70;54.10
11009;DHT22;5557;51.670;7.788;2023-01-24T00:16:16;2.70;54.60
11009;DHT22;5557;51.670;7.788;2023-01-24T00:18:44;2.70;54.70
11009;DHT22;5557;51.670;7.788;2023-01-24T00:21:16;2.70;54.70
11009;DHT22;5557;51.670;7.788;2023-01-24T00:23:47;2.70;52.30
11009;DHT22;5557;51.670;7.788;2023-01-24T00:26:15;2.70;51.20
11009;DHT22;5557;51.670;7.788;2023-01-24T00:28:43;2.70;52.20
11009;DHT22;5557;51.670;7.788;2023-01-24T00:31:11;2.70;50.80
11009;DHT22;5557;51.670;7.788;2023-01-24T00:33:39;2.70;52.30
11009;DHT22;5557;51.670;7.788;2023-01-24T00:36:07;2.70;52.80
11009;DHT22;5557;51.670;7.788;2023-01-24T00:38:34;2.70;51.50
11009;DHT22;5557;51.670;7.788;2023-01-24T00:41:01;2.70;50.90
11009;DHT22;5557;51.670;7.788;2023-01-24T00:43:29;2.70;50.90
11009;DHT22;5557;51.670;7.788;2023-01-24T00:45:56;2.70;51.80
11009;DHT22;5557;51.670;7.788;2023-01-24T00:48:23;2.70;54.80
11009;DHT22;5557;51.670;7.788;2023-01-24T00:50:50;2.70;53.40
11009;DHT22;5557;51.670;7.788;2023-01-24T00:53:17;2.70;54.90
11009;DHT22;5557;51.670;7.788;2023-01-24T00:55:47;2.70;53.50
11009;DHT22;5557;51.670;7.788;2023-01-24T00:58:14;2.70;55.70
11009;DHT22;5557;51.670;7.788;2023-01-24T01:00:41;2.70;56.40
11009;DHT22;5557;51.670;7.788;2023-01-24T01:03:17;2.70;57.80
11009;DHT22;5557;51.670;7.788;2023-01-24T01:05:45;2.70;59.10
11009;DHT22;5557;51.670;7.788;2023-01-24T01:08:12;2.60;59.90
11009;DHT22;5557;51.670;7.788;2023-01-24T01:10:40;2.60;55.70
11009;DHT22;5557;51.670;7.788;2023-01-24T01:13:08;2.60;56.40
11009;DHT22;5557;51.670;7.788;2023-01-24T01:15:37;2.60;57.70
11009;DHT22;5557;51.670;7.788;2023-01-24T01:18:04;2.60;55.70
11009;DHT22;5557;51.670;7.788;2023-01-24T01:20:31;2.60;56.00
11009;DHT22;5557;51.670;7.788;2023-01-24T01:22:58;2.70;50.60
11009;DHT22;5557;51.670;7.788;2023-01-24T01:25:25;2.70;49.80
11009;DHT22;5557;51.670;7.788;2023-01-24T01:27:52;2.70;48.20
11009;DHT22;5557;51.670;7.788;2023-01-24T01:33:03;2.70;45.90
11009;DHT22;5557;51.670;7.788;2023-01-24T01:35:31;2.70;45.90
11009;DHT22;5557;51.670;7.788;2023-01-24T01:37:58;2.70;45.90
11009;DHT22;5557;51.670;7.788;2023-01-24T01:40:25;2.70;45.90
11009;DHT22;5557;51.670;7.788;2023-01-24T01:42:54;2.70;45.90
11009;DHT22;5557;51.670;7.788;2023-01-24T01:45:44;2.70;48.60
11009;DHT22;5557;51.670;7.788;2023-01-24T01:48:34;2.70;48.60
11009;DHT22;5557;51.670;7.788;2023-01-24T01:51:27;2.70;47.30
11009;DHT22;5557;51.670;7.788;2023-01-24T01:54:21;2.70;46.50
11009;DHT22;5557;51.670;7.788;2023-01-24T01:57:05;2.70;44.30
11009;DHT22;5557;51.670;7.788;2023-01-24T01:59:38;2.70;41.40
11009;DHT22;5557;51.670;7.788;2023-01-24T02:02:07;2.70;42.70
11009;DHT22;5557;51.670;7.788;2023-01-24T02:04:38;2.70;42.00
11009;DHT22;5557;51.670;7.788;2023-01-24T02:07:25;2.70;42.90
11009;DHT22;5557;51.670;7.788;2023-01-24T02:09:55;2.70;42.00
11009;DHT22;5557;51.670;7.788;2023-01-24T02:12:25;2.70;43.80
11009;DHT22;5557;51.670;7.788;2023-01-24T02:14:55;2.70;43.70
11009;DHT22;5557;51.670;7.788;2023-01-24T02:17:42;2.70;40.80
11009;DHT22;5557;51.670;7.788;2023-01-24T02:23:35;2.70;37.50
11009;DHT22;5557;51.670;7.788;2023-01-24T02:26:25;2.70;37.60
11009;DHT22;5557;51.670;7.788;2023-01-24T02:29:05;2.70;39.30
11009;DHT22;5557;51.670;7.788;2023-01-24T02:31:55;2.70;40.60
11009;DHT22;5557;51.670;7.788;2023-01-24T02:34:24;2.70;43.70
11009;DHT22;5557;51.670;7.788;2023-01-24T02:37:00;2.70;38.10
11009;DHT22;5557;51.670;7.788;2023-01-24T02:42:23;2.70;40.80
11009;DHT22;5557;51.670;7.788;2023-01-24T02:44:55;2.60;41.80
11009;DHT22;5557;51.670;7.788;2023-01-24T02:47:29;2.60;41.30
11009;DHT22;5557;51.670;7.788;2023-01-24T02:49:59;2.60;42.90
11009;DHT22;5557;51.670;7.788;2023-01-24T02:52:27;2.60;43.50
11009;DHT22;5557;51.670;7.788;2023-01-24T02:55:13;2.60;44.40
11009;DHT22;5557;51.670;7.788;2023-01-24T02:57:40;2.60;43.90
11009;DHT22;5557;51.670;7.788;2023-01-24T03:00:25;2.60;44.90
11009;DHT22;5557;51.670;7.788;2023-01-24T03:02:52;2.60;45.80
11009;DHT22;5557;51.670;7.788;2023-01-24T03:05:19;2.50;44.80
11009;DHT22;5557;51.670;7.788;2023-01-24T03:07:47;2.60;46.90
11009;DHT22;5557;51.670;7.788;2023-01-24T03:10:16;2.50;45.70
11009;DHT22;5557;51.670;7.788;2023-01-24T03:12:44;2.50;45.80
11009;DHT22;5557;51.670;7.788;2023-01-24T03:15:30;2.50;44.30
11009;DHT22;5557;51.670;7.788;2023-01-24T03:18:15;2.50;44.90
11009;DHT22;5557;51.670;7.788;2023-01-24T03:21:01;2.60;45.80
11009;DHT22;5557;51.670;7.788;2023-01-24T03:23:47;2.50;44.70
11009;DHT22;5557;51.670;7.788;2023-01-24T03:26:32;2.50;45.90
11009;DHT22;5557;51.670;7.788;2023-01-24T03:29:18;2.50;45.70
11009;DHT22;5557;51.670;7.788;2023-01-24T03:32:04;2.50;45.40
11009;DHT22;5557;51.670;7.788;2023-01-24T03:34:53;2.50;44.70
11009;DHT22;5557;51.670;7.788;2023-01-24T03:37:22;2.50;43.20
11009;DHT22;5557;51.670;7.788;2023-01-24T03:40:13;2.60;44.20
11009;DHT22;5557;51.670;7.788;2023-01-24T03:42:41;2.50;45.20
11009;DHT22;5557;51.670;7.788;2023-01-24T03:45:26;2.50;45.60
11009;DHT22;5557;51.670;7.788;2023-01-24T03:47:56;2.50;44.30
11009;DHT22;5557;51.670;7.788;2023-01-24T03:50:25;2.50;45.00
11009;DHT22;5557;51.670;7.788;2023-01-24T03:53:12;2.50;43.30
11009;DHT22;5557;51.670;7.788;2023-01-24T03:55:40;2.50;45.20
11009;DHT22;5557;51.670;7.788;2023-01-24T03:58:08;2.50;43.80
11009;DHT22;5557;51.670;7.788;2023-01-24T04:00:36;2.50;42.90
11009;DHT22;5557;51.670;7.788;2023-01-24T04:03:05;2.50;43.10
11009;DHT22;5557;51.670;7.788;2023-01-24T04:05:34;2.50;43.40
11009;DHT22;5557;51.670;7.788;2023-01-24T04:08:02;2.50;42.20
11009;DHT22;5557;51.670;7.788;2023-01-24T04:10:30;2.50;43.20
11009;DHT22;5557;51.670;7.788;2023-01-24T04:12:57;2.50;44.40
11009;DHT22;5557;51.670;7.788;2023-01-24T04:15:27;2.50;45.30
11009;DHT22;5557;51.670;7.788;2023-01-24T04:17:59;2.50;43.90
11009;DHT22;5557;51.670;7.788;2023-01-24T04:20:28;2.50;42.40
11009;DHT22;5557;51.670;7.788;2023-01-24T04:22:56;2.50;42.20
11009;DHT22;5557;51.670;7.788;2023-01-24T04:25:23;2.50;42.30
11009;DHT22;5557;51.670;7.788;2023-01-24T04:27:50;2.50;42.70
11009;DHT22;5557;51.670;7.788;2023-01-24T04:30:17;2.50;43.10
11009;DHT22;5557;51.670;7.788;2023-01-24T04:32:45;2.50;44.60
11009;DHT22;5557;51.670;7.788;2023-01-24T04:35:18;2.50;40.70
11009;DHT22;5557;51.670;7.788;2023-01-24T04:37:46;2.50;42.30
11009;DHT22;5557;51.670;7.788;2023-01-24T04:40:14;2.50;43.90
11009;DHT22;5557;51.670;7.788;2023-01-24T04:42:42;2.50;43.50
11009;DHT22;5557;51.670;7.788;2023-01-24T04:45:11;2.50;41.70
11009;DHT22;5557;51.670;7.788;2023-01-24T04:47:38;2.50;40.70
11009;DHT22;5557;51.670;7.788;2023-01-24T04:50:06;2.50;40.60
11009;DHT22;5557;51.670;7.788;2023-01-24T04:52:33;2.50;41.30
11009;DHT22;5557;51.670;7.788;2023-01-24T04:55:01;2.50;42.70
11009;DHT22;5557;51.670;7.788;2023-01-24T04:57:28;2.50;42.20
11009;DHT22;5557;51.670;7.788;2023-01-24T04:59:55;2.50;43.70
11009;DHT22;5557;51.670;7.788;2023-01-24T05:02:22;2.40;43.60
11009;DHT22;5557;51.670;7.788;2023-01-24T05:04:49;2.50;42.90
11009;DHT22;5557;51.670;7.788;2023-01-24T05:07:16;2.40;43.10
11009;DHT22;5557;51.670;7.788;2023-01-24T05:09:43;2.40;41.20
11009;DHT22;5557;51.670;7.788;2023-01-24T05:12:10;2.50;42.90
11009;DHT22;5557;51.670;7.788;2023-01-24T05:14:37;2.40;42.00
11009;DHT22;5557;51.670;7.788;2023-01-24T05:17:04;2.40;43.60
11009;DHT22;5557;51.670;7.788;2023-01-24T05:19:32;2.40;41.40
11009;DHT22;5557;51.670;7.788;2023-01-24T05:21:59;2.40;41.00
11009;DHT22;5557;51.670;7.788;2023-01-24T05:24:26;2.40;41.90
11009;DHT22;5557;51.670;7.788;2023-01-24T05:26:52;2.40;40.70
11009;DHT22;5557;51.670;7.788;2023-01-24T05:29:20;2.40;42.30
11009;DHT22;5557;51.670;7.788;2023-01-24T05:31:47;2.40;42.60
11009;DHT22;5557;51.670;7.788;2023-01-24T05:34:14;2.40;42.20
11009;DHT22;5557;51.670;7.788;2023-01-24T05:36:41;2.40;42.70
11009;DHT22;5557;51.670;7.788;2023-01-24T05:39:08;2.40;41.40
11009;DHT22;5557;51.670;7.788;2023-01-24T05:41:35;2.40;40.60
11009;DHT22;5557;51.670;7.788;2023-01-24T05:44:02;2.40;40.00
11009;DHT22;5557;51.670;7.788;2023-01-24T05:46:29;2.40;40.30
11009;DHT22;5557;51.670;7.788;2023-01-24T05:48:57;2.40;40.70
11009;DHT22;5557;51.670;7.788;2023-01-24T05:51:24;2.40;40.60
11009;DHT22;5557;51.670;7.788;2023-01-24T05:53:51;2.40;41.30
11009;DHT22;5557;51.670;7.788;2023-01-24T05:56:19;2.40;42.60
11009;DHT22;5557;51.670;7.788;2023-01-24T05:58:47;2.40;43.40
11009;DHT22;5557;51.670;7.788;2023-01-24T06:01:20;2.40;44.40
11009;DHT22;5557;51.670;7.788;2023-01-24T06:03:50;2.40;41.70
11009;DHT22;5557;51.670;7.788;2023-01-24T06:06:22;2.40;40.50
11009;DHT22;5557;51.670;7.788;2023-01-24T06:08:50;2.40;40.60
11009;DHT22;5557;51.670;7.788;2023-01-24T06:11:23;2.30;40.60
11009;DHT22;5557;51.670;7.788;2023-01-24T06:13:56;2.30;40.50
11009;DHT22;5557;51.670;7.788;2023-01-24T06:16:24;2.30;40.50
11009;DHT22;5557;51.670;7.788;2023-01-24T06:18:53;2.30;40.80
11009;DHT22;5557;51.670;7.788;2023-01-24T06:21:36;2.30;42.90
11009;DHT22;5557;51.670;7.788;2023-01-24T06:24:08;2.30;42.90
11009;DHT22;5557;51.670;7.788;2023-01-24T06:26:37;2.30;43.70
11009;DHT22;5557;51.670;7.788;2023-01-24T06:29:04;2.30;41.60
11009;DHT22;5557;51.670;7.788;2023-01-24T06:37:55;2.30;42.20
11009;DHT22;5557;51.670;7.788;2023-01-24T06:40:23;2.30;42.40
11009;DHT22;5557;51.670;7.788;2023-01-24T06:42:51;2.30;42.10
11009;DHT22;5557;51.670;7.788;2023-01-24T06:45:20;2.30;41.60
11009;DHT22;5557;51.670;7.788;2023-01-24T06:47:48;2.30;40.60
11009;DHT22;5557;51.670;7.788;2023-01-24T06:50:18;2.30;42.80
11009;DHT22;5557;51.670;7.788;2023-01-24T06:52:49;2.30;42.80
11009;DHT22;5557;51.670;7.788;2023-01-24T06:55:17;2.30;44.30
11009;DHT22;5557;51.670;7.788;2023-01-24T06:57:43;2.30;42.80
11009;DHT22;5557;51.670;7.788;2023-01-24T07:00:14;2.30;40.30
11009;DHT22;5557;51.670;7.788;2023-01-24T07:02:41;2.30;38.90
11009;DHT22;5557;51.670;7.788;2023-01-24T07:05:08;2.20;41.80
11009;DHT22;5557;51.670;7.788;2023-01-24T07:07:36;2.20;40.40
11009;DHT22;5557;51.670;7.788;2023-01-24T07:10:04;2.30;40.50
11009;DHT22;5557;51.670;7.788;2023-01-24T07:12:31;2.30;42.10
11009;DHT22;5557;51.670;7.788;2023-01-24T07:15:00;2.20;41.80
11009;DHT22;5557;51.670;7.788;2023-01-24T07:17:27;2.20;39.10
11009;DHT22;5557;51.670;7.788;2023-01-24T07:19:54;2.20;41.10
11009;DHT22;5557;51.670;7.788;2023-01-24T07:22:21;2.20;42.20
11009;DHT22;5557;51.670;7.788;2023-01-24T07:24:49;2.20;40.50
11009;DHT22;5557;51.670;7.788;2023-01-24T07:27:16;2.20;42.50
11009;DHT22;5557;51.670;7.788;2023-01-24T07:29:44;2.20;43.00
11009;DHT22;5557;51.670;7.788;2023-01-24T07:32:11;2.20;42.10
11009;DHT22;5557;51.670;7.788;2023-01-24T07:34:39;2.20;41.70
11009;DHT22;5557;51.670;7.788;2023-01-24T07:37:07;2.20;41.20
11009;DHT22;5557;51.670;7.788;2023-01-24T07:39:34;2.20;41.70
11009;DHT22;5557;51.670;7.788;2023-01-24T07:42:01;2.20;41.50
11009;DHT22;5557;51.670;7.788;2023-01-24T07:44:28;2.20;41.90
11009;DHT22;5557;51.670;7.788;2023-01-24T07:46:55;2.20;41.70
11009;DHT22;5557;51.670;7.788;2023-01-24T07:49:23;2.20;40.90
11009;DHT22;5557;51.670;7.788;2023-01-24T07:51:51;2.20;41.40
11009;DHT22;5557;51.670;7.788;2023-01-24T07:54:18;2.20;42.60
11009;DHT22;5557;51.670;7.788;2023-01-24T07:56:46;2.20;40.80
11009;DHT22;5557;51.670;7.788;2023-01-24T07:59:13;2.20;41.80
11009;DHT22;5557;51.670;7.788;2023-01-24T08:01:41;2.20;42.80
11009;DHT22;5557;51.670;7.788;2023-01-24T08:04:08;2.20;40.40
11009;DHT22;5557;51.670;7.788;2023-01-24T08:06:35;2.20;39.40
11009;DHT22;5557;51.670;7.788;2023-01-24T08:09:02;2.20;40.40
11009;DHT22;5557;51.670;7.788;2023-01-24T08:11:29;2.20;39.50
11009;DHT22;5557;51.670;7.788;2023-01-24T08:13:56;2.20;41.20
11009;DHT22;5557;51.670;7.788;2023-01-24T08:16:23;2.20;42.50
11009;DHT22;5557;51.670;7.788;2023-01-24T08:18:52;2.20;40.90
11009;DHT22;5557;51.670;7.788;2023-01-24T08:21:19;2.20;41.40
11009;DHT22;5557;51.670;7.788;2023-01-24T08:23:46;2.20;42.10
11009;DHT22;5557;51.670;7.788;2023-01-24T08:26:13;2.20;42.90
11009;DHT22;5557;51.670;7.788;2023-01-24T08:28:40;2.30;42.40
11009;DHT22;5557;51.670;7.788;2023-01-24T08:31:07;2.30;40.30
11009;DHT22;5557;51.670;7.788;2023-01-24T08:33:35;2.20;39.80
11009;DHT22;5557;51.670;7.788;2023-01-24T08:36:06;2.20;40.50
11009;DHT22;5557;51.670;7.788;2023-01-24T08:38:33;2.20;40.50
11009;DHT22;5557;51.670;7.788;2023-01-24T08:41:04;2.20;40.50
11009;DHT22;5557;51.670;7.788;2023-01-24T08:43:34;2.20;41.30
11009;DHT22;5557;51.670;7.788;2023-01-24T08:46:01;2.30;41.20
11009;DHT22;5557;51.670;7.788;2023-01-24T08:48:29;2.30;40.60
11009;DHT22;5557;51.670;7.788;2023-01-24T08:50:56;2.30;42.50
11009;DHT22;5557;51.670;7.788;2023-01-24T08:53:23;2.30;40.80
11009;DHT22;5557;51.670;7.788;2023-01-24T08:55:50;2.20;38.90
11009;DHT22;5557;51.670;7.788;2023-01-24T08:58:18;2.30;40.30
11009;DHT22;5557;51.670;7.788;2023-01-24T09:00:45;2.30;40.20
11009;DHT22;5557;51.670;7.788;2023-01-24T09:03:15;2.20;40.00
11009;DHT22;5557;51.670;7.788;2023-01-24T09:05:43;2.30;40.50
11009;DHT22;5557;51.670;7.788;2023-01-24T09:08:10;2.30;41.40
11009;DHT22;5557;51.670;7.788;2023-01-24T09:10:38;2.30;40.30
11009;DHT22;5557;51.670;7.788;2023-01-24T09:13:06;2.30;40.00
11009;DHT22;5557;51.670;7.788;2023-01-24T09:15:34;2.30;40.50
11009;DHT22;5557;51.670;7.788;2023-01-24T09:18:02;2.40;40.60
11009;DHT22;5557;51.670;7.788;2023-01-24T09:20:29;2.40;40.60
11009;DHT22;5557;51.670;7.788;2023-01-24T09:22:56;2.40;40.60
11009;DHT22;5557;51.670;7.788;2023-01-24T09:25:23;2.40;36.00
11009;DHT22;5557;51.670;7.788;2023-01-24T09:27:55;2.40;36.70
11009;DHT22;5557;51.670;7.788;2023-01-24T09:30:24;2.40;35.90
11009;DHT22;5557;51.670;7.788;2023-01-24T09:32:51;2.40;38.00
11009;DHT22;5557;51.670;7.788;2023-01-24T09:35:19;2.40;35.50
11009;DHT22;5557;51.670;7.788;2023-01-24T09:37:46;2.40;35.20
11009;DHT22;5557;51.670;7.788;2023-01-24T09:41:03;2.40;33.90
11009;DHT22;5557;51.670;7.788;2023-01-24T09:49:32;2.40;33.70
11009;DHT22;5557;51.670;7.788;2023-01-24T09:52:01;2.50;37.00
11009;DHT22;5557;51.670;7.788;2023-01-24T09:54:48;2.50;33.80
11009;DHT22;5557;51.670;7.788;2023-01-24T09:57:32;2.50;33.40
11009;DHT22;5557;51.670;7.788;2023-01-24T10:00:13;2.40;32.90
11009;DHT22;5557;51.670;7.788;2023-01-24T10:02:43;2.40;33.80
11009;DHT22;5557;51.670;7.788;2023-01-24T10:05:16;2.40;32.90
11009;DHT22;5557;51.670;7.788;2023-01-24T10:08:07;2.40;32.40
11009;DHT22;5557;51.670;7.788;2023-01-24T10:10:53;2.40;31.80
11009;DHT22;5557;51.670;7.788;2023-01-24T10:17:01;2.40;32.60
11009;DHT22;5557;51.670;7.788;2023-01-24T10:23:30;2.50;31.00
11009;DHT22;5557;51.670;7.788;2023-01-24T10:26:21;2.40;32.20
11009;DHT22;5557;51.670;7.788;2023-01-24T10:28:55;2.50;31.00
11009;DHT22;5557;51.670;7.788;2023-01-24T10:31:30;2.40;31.20
11009;DHT22;5557;51.670;7.788;2023-01-24T10:34:38;2.50;30.40
11009;DHT22;5557;51.670;7.788;2023-01-24T10:37:25;2.50;31.70
11009;DHT22;5557;51.670;7.788;2023-01-24T10:39:52;2.50;31.90
11009;DHT22;5557;51.670;7.788;2023-01-24T10:42:27;2.50;30.40
11009;DHT22;5557;51.670;7.788;2023-01-24T10:44:59;2.50;33.00
11009;DHT22;5557;51.670;7.788;2023-01-24T10:47:43;2.50;31.60
11009;DHT22;5557;51.670;7.788;2023-01-24T10:50:16;2.40;31.60
11009;DHT22;5557;51.670;7.788;2023-01-24T10:52:45;2.50;33.20
11009;DHT22;5557;51.670;7.788;2023-01-24T10:55:26;2.50;32.50
11009;DHT22;5557;51.670;7.788;2023-01-24T10:57:57;2.50;32.80
11009;DHT22;5557;51.670;7.788;2023-01-24T11:00:27;2.50;33.30
11009;DHT22;5557;51.670;7.788;2023-01-24T11:02:59;2.50;34.50
11009;DHT22;5557;51.670;7.788;2023-01-24T11:05:39;2.50;35.50
11009;DHT22;5557;51.670;7.788;2023-01-24T11:08:20;2.60;34.00
11009;DHT22;5557;51.670;7.788;2023-01-24T11:10:54;2.60;32.60
11009;DHT22;5557;51.670;7.788;2023-01-24T11:13:40;2.50;34.80
11009;DHT22;5557;51.670;7.788;2023-01-24T11:16:43;2.60;34.30
11009;DHT22;5557;51.670;7.788;2023-01-24T11:19:40;2.60;32.70
11009;DHT22;5557;51.670;7.788;2023-01-24T11:22:25;2.50;34.80
11009;DHT22;5557;51.670;7.788;2023-01-24T11:24:58;2.60;35.30
11009;DHT22;5557;51.670;7.788;2023-01-24T11:27:27;2.60;33.20
11009;DHT22;5557;51.670;7.788;2023-01-24T11:33:22;2.60;36.30
11009;DHT22;5557;51.670;7.788;2023-01-24T11:36:01;2.60;31.50
11009;DHT22;5557;51.670;7.788;2023-01-24T11:38:42;2.50;32.80
11009;DHT22;5557;51.670;7.788;2023-01-24T11:41:26;2.60;33.70
11009;DHT22;5557;51.670;7.788;2023-01-24T11:44:36;2.60;33.80
11009;DHT22;5557;51.670;7.788;2023-01-24T11:50:31;2.50;34.40
11009;DHT22;5557;51.670;7.788;2023-01-24T11:56:09;2.50;36.00
11009;DHT22;5557;51.670;7.788;2023-01-24T12:01:41;2.50;34.90
11009;DHT22;5557;51.670;7.788;2023-01-24T12:04:49;2.50;35.60
11009;DHT22;5557;51.670;7.788;2023-01-24T12:07:34;2.50;34.70
11009;DHT22;5557;51.670;7.788;2023-01-24T12:10:31;2.50;35.60
11009;DHT22;5557;51.670;7.788;2023-01-24T12:16:19;2.60;34.20
11009;DHT22;5557;51.670;7.788;2023-01-24T12:21:56;2.60;33.10
11009;DHT22;5557;51.670;7.788;2023-01-24T12:24:30;2.60;33.20
11009;DHT22;5557;51.670;7.788;2023-01-24T12:27:01;2.60;31.90
11009;DHT22;5557;51.670;7.788;2023-01-24T12:29:40;2.50;31.70
11009;DHT22;5557;51.670;7.788;2023-01-24T12:38:39;2.60;33.20
11009;DHT22;5557;51.670;7.788;2023-01-24T12:44:32;2.50;32.90
11009;DHT22;5557;51.670;7.788;2023-01-24T12:47:03;2.50;33.00
11009;DHT22;5557;51.670;7.788;2023-01-24T12:50:01;2.50;32.40
11009;DHT22;5557;51.670;7.788;2023-01-24T12:52:40;2.50;32.10
11009;DHT22;5557;51.670;7.788;2023-01-24T12:55:56;2.50;33.30
11009;DHT22;5557;51.670;7.788;2023-01-24T12:58:37;2.50;33.20
11009;DHT22;5557;51.670;7.788;2023-01-24T13:07:18;2.60;31.70
11009;DHT22;5557;51.670;7.788;2023-01-24T13:10:26;2.70;32.90
11009;DHT22;5557;51.670;7.788;2023-01-24T13:12:57;2.60;30.40
11009;DHT22;5557;51.670;7.788;2023-01-24T13:15:42;2.60;33.40
11009;DHT22;5557;51.670;7.788;2023-01-24T13:21:48;2.50;32.30
11009;DHT22;5557;51.670;7.788;2023-01-24T13:27:31;2.50;32.60
11009;DHT22;5557;51.670;7.788;2023-01-24T13:30:14;2.50;32.40
11009;DHT22;5557;51.670;7.788;2023-01-24T13:32:45;2.50;34.90
11009;DHT22;5557;51.670;7.788;2023-01-24T13:35:22;2.40;32.60
11009;DHT22;5557;51.670;7.788;2023-01-24T13:38:30;2.40;33.40
11009;DHT22;5557;51.670;7.788;2023-01-24T13:41:06;2.30;33.60
11009;DHT22;5557;51.670;7.788;2023-01-24T13:46:12;2.40;33.30
11009;DHT22;5557;51.670;7.788;2023-01-24T13:48:45;2.50;34.10
11009;DHT22;5557;51.670;7.788;2023-01-24T13:51:30;2.50;34.00
11009;DHT22;5557;51.670;7.788;2023-01-24T13:54:18;2.50;36.00
11009;DHT22;5557;51.670;7.788;2023-01-24T13:57:18;2.60;34.80
11009;DHT22;5557;51.670;7.788;2023-01-24T14:03:21;2.60;33.30
11009;DHT22;5557;51.670;7.788;2023-01-24T14:05:56;2.60;33.40
11009;DHT22;5557;51.670;7.788;2023-01-24T14:08:41;2.50;32.40
11009;DHT22;5557;51.670;7.788;2023-01-24T14:11:19;2.50;34.60
11009;DHT22;5557;51.670;7.788;2023-01-24T14:16:55;2.50;35.20
11009;DHT22;5557;51.670;7.788;2023-01-24T14:19:35;2.40;35.20
11009;DHT22;5557;51.670;7.788;2023-01-24T14:22:33;2.40;35.50
11009;DHT22;5557;51.670;7.788;2023-01-24T14:25:05;2.30;35.00
11009;DHT22;5557;51.670;7.788;2023-01-24T14:27:52;2.40;35.50
11009;DHT22;5557;51.670;7.788;2023-01-24T14:30:55;2.30;34.70
11009;DHT22;5557;51.670;7.788;2023-01-24T14:39:21;2.30;35.70
11009;DHT22;5557;51.670;7.788;2023-01-24T14:42:00;2.30;36.30
11009;DHT22;5557;51.670;7.788;2023-01-24T14:44:37;2.20;36.00
11009;DHT22;5557;51.670;7.788;2023-01-24T14:47:19;2.20;36.50
11009;DHT22;5557;51.670;7.788;2023-01-24T14:49:52;2.20;38.20
11009;DHT22;5557;51.670;7.788;2023-01-24T14:52:25;2.20;38.70
11009;DHT22;5557;51.670;7.788;2023-01-24T14:54:55;2.20;38.70
11009;DHT22;5557;51.670;7.788;2023-01-24T14:57:28;2.20;36.20
11009;DHT22;5557;51.670;7.788;2023-01-24T15:00:14;2.20;37.60
11009;DHT22;5557;51.670;7.788;2023-01-24T15:02:57;2.20;38.20
11009;DHT22;5557;51.670;7.788;2023-01-24T15:05:37;2.20;36.80
11009;DHT22;5557;51.670;7.788;2023-01-24T15:08:14;2.10;35.20
11009;DHT22;5557;51.670;7.788;2023-01-24T15:10:42;2.10;36.60
11009;DHT22;5557;51.670;7.788;2023-01-24T15:13:43;2.10;37.50
11009;DHT22;5557;51.670;7.788;2023-01-24T15:16:27;2.00;36.40
11009;DHT22;5557;51.670;7.788;2023-01-24T15:19:06;2.00;37.40
11009;DHT22;5557;51.670;7.788;2023-01-24T15:21:39;2.00;38.00
11009;DHT22;5557;51.670;7.788;2023-01-24T15:24:37;2.00;38.80
11009;DHT22;5557;51.670;7.788;2023-01-24T15:27:30;2.00;39.90
11009;DHT22;5557;51.670;7.788;2023-01-24T15:30:18;2.00;40.60
11009;DHT22;5557;51.670;7.788;2023-01-24T15:32:48;2.00;40.20
11009;DHT22;5557;51.670;7.788;2023-01-24T15:35:46;2.00;40.40
11009;DHT22;5557;51.670;7.788;2023-01-24T15:38:16;2.00;42.10
11009;DHT22;5557;51.670;7.788;2023-01-24T15:40:52;2.00;39.30
11009;DHT22;5557;51.670;7.788;2023-01-24T15:43:35;2.00;40.20
11009;DHT22;5557;51.670;7.788;2023-01-24T15:46:33;2.00;41.70
11009;DHT22;5557;51.670;7.788;2023-01-24T15:49:59;1.90;41.40
11009;DHT22;5557;51.670;7.788;2023-01-24T15:52:27;1.90;41.00
11009;DHT22;5557;51.670;7.788;2023-01-24T15:54:57;1.80;40.70
11009;DHT22;5557;51.670;7.788;2023-01-24T15:57:34;1.80;40.10
11009;DHT22;5557;51.670;7.788;2023-01-24T16:00:22;1.90;41.20
11009;DHT22;5557;51.670;7.788;2023-01-24T16:02:50;1.80;40.20
11009;DHT22;5557;51.670;7.788;2023-01-24T16:05:19;1.80;40.90
11009;DHT22;5557;51.670;7.788;2023-01-24T16:07:48;1.70;40.70
11009;DHT22;5557;51.670;7.788;2023-01-24T16:10:19;1.70;41.30
11009;DHT22;5557;51.670;7.788;2023-01-24T16:12:50;1.70;40.90
11009;DHT22;5557;51.670;7.788;2023-01-24T16:15:19;1.70;40.80
11009;DHT22;5557;51.670;7.788;2023-01-24T16:17:47;1.70;43.00
11009;DHT22;5557;51.670;7.788;2023-01-24T16:20:22;1.70;42.90
11009;DHT22;5557;51.670;7.788;2023-01-24T16:22:50;1.70;43.50
11009;DHT22;5557;51.670;7.788;2023-01-24T16:25:18;1.70;44.00
11009;DHT22;5557;51.670;7.788;2023-01-24T16:27:46;1.70;45.00
11009;DHT22;5557;51.670;7.788;2023-01-24T16:30:17;1.70;44.90
11009;DHT22;5557;51.670;7.788;2023-01-24T16:32:46;1.70;45.00
11009;DHT22;5557;51.670;7.788;2023-01-24T16:35:14;1.70;46.60
11009;DHT22;5557;51.670;7.788;2023-01-24T16:37:44;1.70;46.50
11009;DHT22;5557;51.670;7.788;2023-01-24T16:40:13;1.70;45.10
11009;DHT22;5557;51.670;7.788;2023-01-24T16:42:42;1.60;43.80
11009;DHT22;5557;51.670;7.788;2023-01-24T16:45:18;1.60;44.70
11009;DHT22;5557;51.670;7.788;2023-01-24T16:47:46;1.60;44.00
11009;DHT22;5557;51.670;7.788;2023-01-24T16:50:13;1.50;43.70
11009;DHT22;5557;51.670;7.788;2023-01-24T16:52:43;1.50;44.90
11009;DHT22;5557;51.670;7.788;2023-01-24T16:55:10;1.50;44.90
11009;DHT22;5557;51.670;7.788;2023-01-24T16:57:37;1.50;44.80
11009;DHT22;5557;51.670;7.788;2023-01-24T17:00:06;1.50;44.90
11009;DHT22;5557;51.670;7.788;2023-01-24T17:02:43;1.50;43.90
11009;DHT22;5557;51.670;7.788;2023-01-24T17:05:11;1.50;45.60
11009;DHT22;5557;51.670;7.788;2023-01-24T17:07:39;1.40;43.00
11009;DHT22;5557;51.670;7.788;2023-01-24T17:10:08;1.40;43.60
11009;DHT22;5557;51.670;7.788;2023-01-24T17:12:36;1.40;44.80
11009;DHT22;5557;51.670;7.788;2023-01-24T17:15:03;1.40;46.00
11009;DHT22;5557;51.670;7.788;2023-01-24T17:17:30;1.50;45.50
11009;DHT22;5557;51.670;7.788;2023-01-24T17:19:57;1.40;46.80
11009;DHT22;5557;51.670;7.788;2023-01-24T17:22:24;1.50;47.40
11009;DHT22;5557;51.670;7.788;2023-01-24T17:24:53;1.50;47.70
11009;DHT22;5557;51.670;7.788;2023-01-24T17:27:20;1.50;48.70
11009;DHT22;5557;51.670;7.788;2023-01-24T17:29:47;1.50;49.40
11009;DHT22;5557;51.670;7.788;2023-01-24T17:32:14;1.50;49.20
11009;DHT22;5557;51.670;7.788;2023-01-24T17:34:41;1.50;46.30
11009;DHT22;5557;51.670;7.788;2023-01-24T17:37:10;1.50;46.40
11009;DHT22;5557;51.670;7.788;2023-01-24T17:39:40;1.50;45.90
11009;DHT22;5557;51.670;7.788;2023-01-24T17:42:07;1.50;47.20
11009;DHT22;5557;51.670;7.788;2023-01-24T17:44:34;1.50;46.70
11009;DHT22;5557;51.670;7.788;2023-01-24T17:47:01;1.40;45.00
11009;DHT22;5557;51.670;7.788;2023-01-24T17:49:28;1.40;47.30
11009;DHT22;5557;51.670;7.788;2023-01-24T17:51:56;1.40;46.60
11009;DHT22;5557;51.670;7.788;2023-01-24T17:54:23;1.40;47.20
11009;DHT22;5557;51.670;7.788;2023-01-24T17:56:50;1.40;48.50
11009;DHT22;5557;51.670;7.788;2023-01-24T17:59:17;1.30;48.60
11009;DHT22;5557;51.670;7.788;2023-01-24T18:01:44;1.30;49.50
11009;DHT22;5557;51.670;7.788;2023-01-24T18:04:12;1.30;50.00
11009;DHT22;5557;51.670;7.788;2023-01-24T18:06:39;1.30;50.30